LiveATC.Net - Listen to live air traffic control over the Internet! Contact LiveATC.net for advertising information


ICAO: KTVL  IATA: TVL   Airport: Lake Tahoe Airport
City: South Lake Tahoe   State/Province: California
Country: United States   Continent: North America
KTVL METAR Weather: KTVL 061153Z AUTO 00000KT 10SM CLR M04/M08 A3040 RMK AO2 SLP281 T10441083 11006 21050 58004
KTVL Flight Activity (FlightAware)
KTVL Airport Info   (AirNav) (iFlightPlanner)
KTVL CTAF/Unicom
Feed Status: DOWN
Last heard on: 2015-03-06 07:06:03 (0 days 5 hours 30 minutes ago)
KTVL CTAF/Unicom Audio Archives
FacilityFrequency
Lake Tahoe CTAF/UNICOM122.950


NOTICE

Unauthorized use prohibited. See LiveATC.net Terms of Service


Find LiveATC Audio Streams


Airport/ARTCC Code

Frequency
(e.g., 124.400, 128.75)
Site-wide search

Browse LiveATC Feeds
LiveATC Coverage Map
Top 50 LiveATC Feeds
Bad Weather Areas

LiveATC FAQ
Offer a LiveATC Feed
Contact LiveATC.net
Press Inquiries

LiveATC on iPhone
LiveATC on Android

LiveATC Mobile
(Mobile browser)

ATC Audio Archives
Interesting Recordings

LiveATC Forums


Home Page
About LiveATC.net
Make a Donation
LiveATC Bookstore

Terms of Use
Privacy Policy

ATC/Radar Sites
U.S. ARTCC Freqs
Canadian Air Freqs

AIRMETs/SIGMETs

FAA Airport Status
Nat'l Airspace Status
Arrival Demand Charts


Server Software By:
Icecast.org
Liquidsoap

Please make a donation to help us keep growing!